createdAt,value
2023-04-20T00:00:49.502Z,1004.34
2023-04-20T00:10:57.068Z,1004.27
2023-04-20T00:21:04.411Z,1004.19
2023-04-20T00:31:11.546Z,1004.11
2023-04-20T00:41:19.050Z,1004.08
2023-04-20T00:51:26.326Z,1004.06
2023-04-20T01:01:33.443Z,1003.96
2023-04-20T01:11:40.755Z,1003.87
2023-04-20T01:21:48.221Z,1003.76
2023-04-20T01:31:55.518Z,1003.75
2023-04-20T01:42:03.163Z,1003.73
2023-04-20T01:52:10.644Z,1003.61
2023-04-20T02:02:19.047Z,1003.56
2023-04-20T02:12:26.907Z,1003.52
2023-04-20T02:22:34.372Z,1003.52
2023-04-20T02:32:42.902Z,1003.50
2023-04-20T02:42:50.158Z,1003.49
2023-04-20T02:52:57.731Z,1003.47
2023-04-20T03:03:05.209Z,1003.44
2023-04-20T03:13:12.621Z,1003.43
2023-04-20T03:23:19.458Z,1003.36
2023-04-20T03:33:26.649Z,1003.43
2023-04-20T03:43:34.009Z,1003.33
2023-04-20T03:53:41.158Z,1003.35
2023-04-20T04:03:48.908Z,1003.36
2023-04-20T04:13:56.524Z,1003.32
2023-04-20T04:24:03.451Z,1003.37
2023-04-20T04:34:08.371Z,1003.47
2023-04-20T04:44:14.549Z,1003.54
2023-04-20T04:54:20.970Z,1003.58
2023-04-20T05:04:29.330Z,1003.50
2023-04-20T05:14:39.274Z,1003.56
2023-04-20T05:24:47.085Z,1003.54
2023-04-20T05:34:54.911Z,1003.63
2023-04-20T05:45:02.423Z,1003.70
2023-04-20T05:55:09.792Z,1003.75
2023-04-20T06:05:17.447Z,1003.83
2023-04-20T06:15:25.070Z,1003.99
2023-04-20T06:25:32.626Z,1004.04
2023-04-20T06:35:39.721Z,1003.93
2023-04-20T06:45:46.659Z,1003.97
2023-04-20T06:55:55.426Z,1003.87
2023-04-20T07:06:03.204Z,1003.84
2023-04-20T07:16:10.858Z,1003.84
2023-04-20T07:26:17.841Z,1003.89
2023-04-20T07:36:24.441Z,1003.89
2023-04-20T07:46:31.541Z,1003.93
2023-04-20T07:56:38.821Z,1003.93
2023-04-20T08:06:45.968Z,1003.96
2023-04-20T08:16:53.116Z,1003.94
2023-04-20T08:27:00.573Z,1003.85
2023-04-20T08:37:07.770Z,1003.77
2023-04-20T08:47:15.198Z,1003.97
2023-04-20T08:57:22.813Z,1003.74
2023-04-20T09:07:30.509Z,1003.64
2023-04-20T09:17:38.148Z,1003.86
2023-04-20T09:27:44.240Z,1003.88
2023-04-20T09:37:50.030Z,1003.69
2023-04-20T09:47:56.141Z,1003.63
2023-04-20T09:58:02.313Z,1003.55
2023-04-20T10:08:08.224Z,1003.53
2023-04-20T10:18:14.233Z,1003.57
2023-04-20T10:28:20.203Z,1003.50
2023-04-20T10:38:26.291Z,1003.38
2023-04-20T10:48:31.615Z,1003.20
2023-04-20T10:58:37.927Z,1003.09
2023-04-20T11:08:44.652Z,1003.05
2023-04-20T11:18:51.048Z,1002.92
2023-04-20T11:28:57.345Z,1002.89
2023-04-20T11:39:03.327Z,1002.87
2023-04-20T11:49:09.702Z,1002.83
2023-04-20T11:59:16.006Z,1002.87
2023-04-20T12:09:22.599Z,1002.93
2023-04-20T12:19:28.975Z,1002.93
2023-04-20T12:29:35.178Z,1002.82
2023-04-20T12:39:41.736Z,1002.65
2023-04-20T12:49:47.774Z,1002.55
2023-04-20T12:59:54.040Z,1002.44
2023-04-20T13:10:00.768Z,1002.38
2023-04-20T13:20:07.090Z,1002.27
2023-04-20T13:30:13.727Z,1002.24
2023-04-20T13:40:19.889Z,1002.16
2023-04-20T13:50:26.399Z,1001.86
2023-04-20T14:00:34.758Z,1001.87
2023-04-20T14:10:42.267Z,1001.80
2023-04-20T14:20:48.686Z,1001.76
2023-04-20T14:30:55.013Z,1001.71
2023-04-20T14:41:01.622Z,1001.77
2023-04-20T14:51:08.373Z,1001.76
2023-04-20T15:01:15.303Z,1001.85
2023-04-20T15:11:21.956Z,1001.93
2023-04-20T15:21:28.888Z,1001.87
2023-04-20T15:31:35.415Z,1001.77
2023-04-20T15:41:42.207Z,1001.83
2023-04-20T15:51:49.202Z,1001.71
2023-04-20T16:01:56.095Z,1001.69
2023-04-20T16:12:03.150Z,1001.68
2023-04-20T16:22:09.994Z,1001.69
2023-04-20T16:32:16.435Z,1001.64
2023-04-20T16:42:24.997Z,1001.68
2023-04-20T16:52:32.913Z,1001.81
2023-04-20T17:02:40.031Z,1001.84
2023-04-20T17:12:47.167Z,1001.94
2023-04-20T17:22:53.630Z,1001.83
2023-04-20T17:33:00.168Z,1001.97
2023-04-20T17:43:07.048Z,1001.96
2023-04-20T17:53:13.759Z,1002.02
2023-04-20T18:03:20.813Z,1002.03
2023-04-20T18:13:27.346Z,1002.05
2023-04-20T18:23:35.853Z,1002.17
2023-04-20T18:33:45.459Z,1002.33
2023-04-20T18:43:51.967Z,1002.39
2023-04-20T18:53:58.806Z,1002.38
2023-04-20T19:04:05.610Z,1002.31
2023-04-20T19:14:12.387Z,1002.26
2023-04-20T19:24:19.099Z,1002.20
2023-04-20T19:34:25.907Z,1002.13
2023-04-20T19:44:32.552Z,1002.18
2023-04-20T19:54:39.187Z,1002.21
2023-04-20T20:04:45.896Z,1002.05
2023-04-20T20:14:52.647Z,1002.04
2023-04-20T20:24:59.493Z,1002.02
2023-04-20T20:35:05.812Z,1001.96
2023-04-20T20:45:12.650Z,1001.99
2023-04-20T20:55:19.060Z,1002.00
2023-04-20T21:05:25.466Z,1001.95
2023-04-20T21:15:31.896Z,1002.02
2023-04-20T21:25:38.166Z,1001.98
2023-04-20T21:35:44.533Z,1001.95
2023-04-20T21:45:51.109Z,1001.94
2023-04-20T21:55:57.598Z,1001.95
2023-04-20T22:06:04.296Z,1001.93
2023-04-20T22:16:10.804Z,1002.01
2023-04-20T22:26:17.315Z,1002.05
2023-04-20T22:36:23.928Z,1002.12
2023-04-20T22:46:30.956Z,1002.16
2023-04-20T22:56:37.542Z,1002.09
2023-04-20T23:06:44.296Z,1002.04
2023-04-20T23:16:50.410Z,1001.90
2023-04-20T23:26:56.510Z,1001.81
2023-04-20T23:37:02.494Z,1001.78
2023-04-20T23:47:09.028Z,1001.80
2023-04-20T23:57:15.053Z,1001.69
